Time;durP1;ratioP1;P1;durP2;ratioP2;P2;SDS_P1;SDS_P2;PMS_P1;PMS_P2;Temp;Humidity;BMP_temperature;BMP_pressure;BME280_temperature;BME280_humidity;BME280_pressure;Samples;Min_cycle;Max_cycle;Signal;HPM_P1;HPM_P2
2021/08/13 00:13:50;;;;;;;0.38;0.30;;;;;;;13.61;78.33;100764.69;6166818;23;20005;-79
2021/08/13 00:31:17;;;;;;;1.58;0.60;;;;;;;13.65;78.09;100781.44;5955014;24;20024;-80
2021/08/13 00:34:40;;;;;;;;;;;;;;;;;;;;;
2021/08/13 00:59:28;;;;;;;;;;;;;;;;;;;;;
2021/08/13 01:05:41;;;;;;;1.52;0.70;;;;;;;13.43;78.49;100796.31;6082318;23;20052;-80
2021/08/13 01:23:11;;;;;;;1.10;0.85;;;;;;;13.32;78.77;100794.63;5783709;24;20036;-77
2021/08/13 01:29:15;;;;;;;3.60;1.17;;;;;;;13.44;78.63;100803.44;5985597;23;20054;-78
2021/08/13 01:32:38;;;;;;;1.38;0.98;;;;;;;13.53;78.91;100811.94;6105015;23;20010;-77
2021/08/13 01:35:26;;;;;;;4.22;1.23;;;;;;;13.58;79.58;100813.84;6053728;23;20221;-77
2021/08/13 01:39:00;;;;;;;;;;;;;;;;;;;;;
2021/08/13 01:41:37;;;;;;;3.28;1.20;;;;;;;13.61;79.85;100792.16;6051195;23;20028;-79
2021/08/13 01:44:56;;;;;;;;;;;;;;;;;;;;;
2021/08/13 01:48:33;;;;;;;;;;;;;;;;;;;;;
2021/08/13 01:54:44;;;;;;;6.72;1.42;;;;;;;13.67;80.22;100786.63;6102858;23;20021;-74
2021/08/13 01:57:11;;;;;;;6.10;1.50;;;;;;;13.60;80.06;100785.00;6160450;23;20005;-74
2021/08/13 01:59:54;;;;;;;;;;;;;;;;;;;;;
2021/08/13 02:02:48;;;;;;;;;;;;;;;;;;;;;
2021/08/13 02:05:37;;;;;;;;;;;;;;;;;;;;;
2021/08/13 02:08:35;;;;;;;;;;;;;;;;;;;;;
2021/08/13 02:32:55;;;;;;;5.85;2.35;;;;;;;13.84;80.46;100778.09;5812065;24;20112;-75
2021/08/13 02:35:32;;;;;;;3.47;1.33;;;;;;;13.74;80.61;100771.53;5776523;24;20019;-75
2021/08/13 02:38:37;;;;;;;2.75;1.40;;;;;;;13.68;81.06;100763.56;5808567;24;19999;-76
2021/08/13 02:44:39;;;;;;;6.53;3.17;;;;;;;13.69;81.01;100771.53;6075105;23;20094;-75
2021/08/13 03:08:20;;;;;;;3.67;1.85;;;;;;;13.89;81.14;100767.91;6077591;23;20047;-75
2021/08/13 03:14:26;;;;;;;6.30;1.67;;;;;;;13.88;81.00;100760.75;6072340;23;20033;-78
2021/08/13 03:31:33;;;;;;;4.13;1.90;;;;;;;14.13;80.47;100775.50;5929455;24;20039;-76
2021/08/13 03:34:27;;;;;;;9.20;1.48;;;;;;;14.09;80.76;100758.78;5930298;24;20024;-76
2021/08/13 03:37:37;;;;;;;4.40;1.70;;;;;;;14.08;80.51;100750.81;5972881;23;20038;-74
2021/08/13 03:47:19;;;;;;;;;;;;;;;;;;;;;
2021/08/13 03:54:19;;;;;;;2.58;1.55;;;;;;;14.13;80.16;100765.34;5764014;24;20067;-75
2021/08/13 04:03:12;;;;;;;2.20;1.13;;;;;;;14.04;80.02;100756.03;5824727;24;20080;-75
2021/08/13 04:17:20;;;;;;;2.78;1.30;;;;;;;14.24;80.41;100784.56;5801314;24;20067;-75
2021/08/13 04:23:59;;;;;;;0.98;0.77;;;;;;;14.16;79.76;100771.38;5786796;24;20157;-76
2021/08/13 04:26:24;;;;;;;13.32;1.20;;;;;;;14.14;79.89;100768.91;5795028;24;20015;-79
2021/08/13 04:28:50;;;;;;;10.93;1.05;;;;;;;14.28;80.34;100788.38;5780194;24;20022;-78
2021/08/13 04:31:33;;;;;;;;;;;;;;;;;;;;;
2021/08/13 04:34:02;;;;;;;1.02;0.90;;;;;;;14.23;80.08;100774.66;6113426;23;20033;-77
2021/08/13 04:40:18;;;;;;;2.42;1.27;;;;;;;14.24;79.67;100754.31;5958656;24;20448;-79
2021/08/13 04:46:31;;;;;;;1.02;0.93;;;;;;;14.22;79.75;100740.00;5905584;24;20009;-78
2021/08/13 04:52:15;;;;;;;3.10;1.50;;;;;;;14.28;79.65;100755.34;5880836;24;20032;-80
2021/08/13 05:02:42;;;;;;;;;;;;;;;;;;;;;
2021/08/13 05:12:21;;;;;;;8.98;2.78;;;;;;;14.34;81.00;100831.28;5855366;24;20056;-77
2021/08/13 05:31:53;;;;;;;5.90;2.17;;;;;;;14.55;80.35;100848.50;5981423;23;20072;-76
2021/08/13 05:37:40;;;;;;;12.68;3.15;;;;;;;14.61;81.22;100841.06;5987403;24;20073;-79
2021/08/13 05:43:30;;;;;;;9.00;2.65;;;;;;;14.65;81.92;100826.47;5991433;24;20018;-81
2021/08/13 05:56:55;;;;;;;;;;;;;;;;;;;;;
2021/08/13 06:06:51;;;;;;;;;;;;;;;;;;;;;
2021/08/13 06:16:50;;;;;;;15.32;3.08;;;;;;;15.61;79.96;100868.47;5774240;24;20026;-80
2021/08/13 06:43:45;;;;;;;7.38;2.42;;;;;;;16.32;78.06;100877.19;6018729;23;20019;-81
2021/08/13 06:46:44;;;;;;;10.50;3.03;;;;;;;16.43;77.66;100878.72;5993373;23;19991;-77
2021/08/13 06:49:23;;;;;;;;;;;;;;;;;;;;;
2021/08/13 06:52:29;;;;;;;13.88;3.58;;;;;;;16.66;76.91;100888.09;6015653;23;20031;-77
2021/08/13 06:55:47;;;;;;;12.48;3.15;;;;;;;16.77;76.65;100885.22;5997102;23;20027;-75
2021/08/13 07:01:54;;;;;;;10.23;2.85;;;;;;;16.94;75.63;100868.97;6025450;23;20033;-76
2021/08/13 07:04:20;;;;;;;12.38;3.22;;;;;;;16.89;75.30;100869.88;6079609;23;20065;-80
2021/08/13 07:06:45;;;;;;;10.75;3.20;;;;;;;17.06;75.24;100887.88;6077497;23;20366;-75
2021/08/13 07:09:17;;;;;;;14.88;3.03;;;;;;;16.99;74.95;100870.84;6079568;23;20009;-75
2021/08/13 07:11:46;;;;;;;15.60;2.45;;;;;;;17.13;75.06;100888.31;6079451;23;20006;-74
2021/08/13 07:14:11;;;;;;;18.15;4.38;;;;;;;17.26;75.07;100884.78;6078067;23;20718;-75
2021/08/13 07:16:37;;;;;;;13.65;2.70;;;;;;;17.32;73.98;100868.13;6092672;23;20005;-76
2021/08/13 07:19:09;;;;;;;15.45;2.90;;;;;;;17.44;73.51;100876.78;6163482;23;20005;-77
2021/08/13 07:21:55;;;;;;;10.02;3.00;;;;;;;17.75;73.75;100899.19;6164267;23;20001;-75
2021/08/13 07:24:22;;;;;;;16.00;3.88;;;;;;;17.68;73.25;100873.88;6160712;23;20009;-74
2021/08/13 07:26:47;;;;;;;15.02;2.90;;;;;;;17.86;72.97;100886.03;6136569;23;20304;-76
2021/08/13 07:29:16;;;;;;;13.27;3.05;;;;;;;18.10;72.09;100896.13;6162336;23;20005;-76
2021/08/13 07:31:41;;;;;;;7.72;3.17;;;;;;;18.14;71.95;100883.34;6163410;23;20060;-75
2021/08/13 07:34:07;;;;;;;15.43;3.55;;;;;;;18.18;70.48;100887.13;6160516;23;20076;-72
2021/08/13 07:36:38;;;;;;;14.60;3.78;;;;;;;18.29;70.61;100888.56;6161050;23;20020;-78
2021/08/13 07:39:22;;;;;;;7.50;2.70;;;;;;;18.25;69.71;100882.03;6164498;23;20049;-75
2021/08/13 07:41:57;;;;;;;8.38;3.10;;;;;;;18.43;69.50;100887.75;6135232;23;20028;-76
2021/08/13 07:44:35;;;;;;;;;;;;;;;;;;;;;
2021/08/13 07:47:01;;;;;;;10.60;3.25;;;;;;;18.72;69.21;100894.91;6134735;23;20069;-76
2021/08/13 07:52:26;;;;;;;22.60;3.92;;;;;;;19.01;67.46;100892.63;6136265;23;20097;-75
2021/08/13 07:55:06;;;;;;;;;;;;;;;;;;;;;
2021/08/13 07:57:57;;;;;;;6.55;3.05;;;;;;;19.30;65.71;100899.75;6182663;23;20036;-74
2021/08/13 08:00:32;;;;;;;6.35;3.30;;;;;;;19.34;64.74;100906.28;6163333;23;20498;-74
2021/08/13 08:03:07;;;;;;;8.02;3.13;;;;;;;19.78;65.42;100930.75;6161236;23;20047;-74
2021/08/13 08:05:33;;;;;;;;;;;;;;;19.96;62.89;100935.31;6138477;23;20033;-74
2021/08/13 08:07:59;;;;;;;11.00;3.25;;;;;;;19.81;62.78;100925.41;6164939;23;19919;-76
2021/08/13 08:10:24;;;;;;;9.65;3.05;;;;;;;19.78;62.82;100914.09;6116081;23;20005;-74
2021/08/13 08:13:00;;;;;;;14.50;3.47;;;;;;;19.77;61.84;100940.22;6166272;23;20084;-75
2021/08/13 08:15:25;;;;;;;10.45;2.60;;;;;;;19.80;62.34;100945.16;6166796;23;20250;-74
2021/08/13 08:17:56;;;;;;;6.82;3.03;;;;;;;19.92;62.35;100955.69;6163460;23;20020;-74
2021/08/13 08:20:22;;;;;;;11.77;2.70;;;;;;;19.94;62.10;100959.78;6165208;23;20009;-74
2021/08/13 08:22:47;;;;;;;12.30;3.13;;;;;;;19.95;61.79;100942.00;6171131;23;20029;-73
2021/08/13 08:25:13;;;;;;;10.55;2.63;;;;;;;20.05;61.97;100940.94;6194086;23;20024;-74
2021/08/13 08:27:39;;;;;;;11.20;2.83;;;;;;;20.24;61.67;100960.13;6140857;23;20013;-75
2021/08/13 08:30:06;;;;;;;4.13;2.42;;;;;;;20.37;61.64;100964.78;6139432;23;20064;-73
2021/08/13 08:32:31;;;;;;;5.38;2.45;;;;;;;20.46;61.82;100966.75;6165048;23;20033;-74
2021/08/13 08:34:57;;;;;;;10.40;2.88;;;;;;;20.60;60.77;100973.03;6165543;23;20059;-74
2021/08/13 08:37:22;;;;;;;5.53;2.78;;;;;;;20.69;61.20;100960.03;6139680;23;20008;-74
2021/08/13 08:39:48;;;;;;;12.30;2.20;;;;;;;20.90;60.36;100959.44;6141646;23;20020;-74
2021/08/13 08:42:21;;;;;;;3.45;2.33;;;;;;;21.19;60.26;100958.03;6138298;23;20008;-75
2021/08/13 08:44:47;;;;;;;5.57;2.83;;;;;;;21.35;58.98;100959.19;6165947;23;20060;-74
2021/08/13 08:47:12;;;;;;;8.07;3.03;;;;;;;21.33;57.79;100955.88;6161941;23;20301;-75
2021/08/13 08:49:39;;;;;;;11.05;2.50;;;;;;;21.25;57.94;100971.44;6189728;23;19989;-75
2021/08/13 08:52:07;;;;;;;8.13;2.72;;;;;;;21.14;57.50;100974.84;6164845;23;20025;-74
2021/08/13 08:54:35;;;;;;;10.82;3.03;;;;;;;21.01;58.07;100960.78;6187167;23;20055;-75
2021/08/13 08:57:03;;;;;;;3.85;2.67;;;;;;;21.01;58.30;100977.47;6191914;23;20001;-75
2021/08/13 08:59:28;;;;;;;7.40;2.92;;;;;;;20.91;58.26;100972.19;6129500;23;20037;-74
2021/08/13 09:01:55;;;;;;;14.27;2.78;;;;;;;20.85;58.63;100987.38;6158571;23;20397;-74
2021/08/13 09:04:21;;;;;;;4.95;2.67;;;;;;;20.88;58.92;100979.22;6128612;23;20009;-74
2021/08/13 09:06:46;;;;;;;8.32;2.72;;;;;;;21.00;58.90;100984.16;6110100;23;20013;-74
2021/08/13 09:09:13;;;;;;;8.10;2.72;;;;;;;21.09;59.20;100981.41;6084176;23;20590;-74
2021/08/13 09:11:41;;;;;;;7.18;2.75;;;;;;;21.21;58.01;100992.69;6083974;23;20096;-75
2021/08/13 09:14:10;;;;;;;5.65;2.92;;;;;;;21.23;57.21;100989.59;6107619;23;20037;-75
2021/08/13 09:16:36;;;;;;;6.10;2.75;;;;;;;21.28;56.75;100992.22;6154959;23;20032;-74
2021/08/13 09:19:06;;;;;;;10.45;3.05;;;;;;;21.24;56.43;100991.22;6136210;23;20006;-74
2021/08/13 09:21:33;;;;;;;11.60;3.60;;;;;;;21.16;56.65;100994.81;6132753;23;20005;-74
2021/08/13 09:24:06;;;;;;;9.07;2.50;;;;;;;21.09;56.64;100993.31;6111777;23;20017;-74
2021/08/13 09:26:41;;;;;;;9.15;2.60;;;;;;;21.17;56.92;100996.44;6135134;23;20005;-75
2021/08/13 09:29:07;;;;;;;11.07;2.73;;;;;;;21.14;56.59;100997.09;6161160;23;20025;-74
2021/08/13 09:31:34;;;;;;;4.10;2.33;;;;;;;21.06;56.33;100990.38;6135358;23;20069;-74
2021/08/13 09:34:10;;;;;;;6.82;2.80;;;;;;;21.07;56.77;101001.19;6134282;23;20048;-75
2021/08/13 09:36:51;;;;;;;5.50;2.30;;;;;;;21.05;56.78;101011.78;6159237;23;20013;-74
2021/08/13 09:39:32;;;;;;;12.38;2.53;;;;;;;21.04;56.42;101015.72;6136125;23;20005;-74
2021/08/13 09:42:00;;;;;;;6.55;2.00;;;;;;;21.03;56.53;100997.41;6130739;23;20005;-76
2021/08/13 09:44:31;;;;;;;16.75;3.00;;;;;;;21.21;56.38;101014.13;6132450;23;20007;-74
2021/08/13 09:47:09;;;;;;;3.42;2.40;;;;;;;21.43;56.79;101016.78;6160933;23;20013;-74
2021/08/13 09:49:36;;;;;;;3.83;2.00;;;;;;;21.67;54.65;101004.41;6133839;23;20005;-74
2021/08/13 09:52:20;;;;;;;8.48;2.35;;;;;;;22.00;54.64;101003.06;6105001;23;20037;-74
2021/08/13 09:54:47;;;;;;;4.25;1.92;;;;;;;22.09;54.12;100999.13;6132784;23;20069;-72
2021/08/13 09:57:15;;;;;;;4.07;2.45;;;;;;;22.40;53.49;101003.66;6136475;23;20013;-74
2021/08/13 10:00:02;;;;;;;7.30;2.35;;;;;;;22.86;52.82;100994.78;6165045;23;20352;-75
2021/08/13 10:02:39;;;;;;;5.22;2.30;;;;;;;23.09;51.67;101004.50;6158355;23;20555;-76
2021/08/13 10:05:25;;;;;;;2.35;2.00;;;;;;;23.30;51.35;101006.53;6114471;23;20024;-74
2021/08/13 10:07:53;;;;;;;4.07;2.20;;;;;;;23.38;50.66;101008.44;6165268;23;20013;-76
2021/08/13 10:10:24;;;;;;;4.45;1.70;;;;;;;23.50;49.85;101018.88;6163324;23;20009;-74
2021/08/13 10:12:50;;;;;;;4.35;2.15;;;;;;;23.46;49.33;101010.34;6162014;23;20012;-74
2021/08/13 10:15:40;;;;;;;5.75;2.38;;;;;;;23.46;48.56;101015.13;6189068;23;19997;-74
2021/08/13 10:18:08;;;;;;;8.25;2.83;;;;;;;23.32;49.26;101020.97;6163267;23;20570;-74
2021/08/13 10:20:42;;;;;;;5.15;2.15;;;;;;;23.31;49.20;101011.78;6164227;23;20005;-75
2021/08/13 10:23:09;;;;;;;10.93;2.60;;;;;;;23.39;48.84;101009.25;6163002;23;20028;-75
2021/08/13 10:25:35;;;;;;;8.63;2.72;;;;;;;23.44;48.56;101011.88;6139288;23;20005;-75
2021/08/13 10:28:01;;;;;;;3.95;2.08;;;;;;;23.47;48.77;101006.41;6138236;23;20061;-74
2021/08/13 10:30:26;;;;;;;2.15;1.73;;;;;;;23.48;48.82;101019.22;6140530;23;20018;-75
2021/08/13 10:32:56;;;;;;;7.63;2.35;;;;;;;23.40;48.47;101022.88;6192676;23;20005;-74
2021/08/13 10:35:27;;;;;;;3.42;2.45;;;;;;;23.18;48.49;101033.19;6166068;23;20021;-74
2021/08/13 10:37:53;;;;;;;6.15;1.73;;;;;;;22.92;48.65;101035.25;6166157;23;19997;-75
2021/08/13 10:40:18;;;;;;;8.77;2.22;;;;;;;22.72;50.01;101032.09;6144085;23;20082;-76
2021/08/13 10:42:46;;;;;;;3.20;2.22;;;;;;;22.69;50.19;101048.63;6140953;23;19997;-75
2021/08/13 10:45:21;;;;;;;3.00;2.10;;;;;;;22.56;50.59;101048.53;6163138;23;20005;-74
2021/08/13 10:47:57;;;;;;;2.33;1.55;;;;;;;22.44;50.26;101037.25;6165309;23;20092;-75
2021/08/13 10:50:24;;;;;;;5.72;1.92;;;;;;;22.42;50.71;101023.66;6165796;23;20073;-74
2021/08/13 10:52:49;;;;;;;3.80;2.00;;;;;;;22.31;50.63;101027.88;6116205;23;20005;-74
2021/08/13 10:55:36;;;;;;;9.40;2.10;;;;;;;22.46;51.20;101048.88;6115566;23;20009;-74
2021/08/13 10:58:02;;;;;;;3.92;2.22;;;;;;;22.36;50.88;101024.97;6164075;23;20100;-74
2021/08/13 11:01:06;;;;;;;2.35;1.63;;;;;;;22.58;51.29;101031.47;6163325;23;20024;-75
2021/08/13 11:03:37;;;;;;;4.60;1.80;;;;;;;22.69;49.90;101049.44;6162081;23;20020;-75
2021/08/13 11:06:03;;;;;;;7.97;2.13;;;;;;;23.03;50.03;101039.31;6164344;23;20001;-74
2021/08/13 11:08:52;;;;;;;2.40;1.75;;;;;;;23.49;49.20;101032.00;6163066;23;20005;-74
2021/08/13 11:11:17;;;;;;;6.13;2.05;;;;;;;23.46;48.33;101035.47;6154261;23;20368;-74
2021/08/13 11:13:47;;;;;;;2.47;2.10;;;;;;;23.40;48.50;101020.06;6140817;23;20009;-75
2021/08/13 11:16:25;;;;;;;3.13;1.73;;;;;;;23.58;48.91;101033.91;6165631;23;20100;-74
2021/08/13 11:18:59;;;;;;;3.95;1.73;;;;;;;23.86;48.47;101023.84;6165416;23;20025;-74
2021/08/13 11:21:36;;;;;;;2.53;1.77;;;;;;;24.21;47.06;101037.50;6167471;23;20009;-74
2021/08/13 11:24:05;;;;;;;9.07;2.35;;;;;;;24.45;45.16;101040.72;6189924;23;19997;-74
2021/08/13 11:27:07;;;;;;;2.63;1.45;;;;;;;24.90;46.20;101035.09;6165973;23;20377;-74
2021/08/13 11:29:34;;;;;;;3.40;1.30;;;;;;;24.94;44.45;101021.22;6080532;23;20013;-74
2021/08/13 11:32:05;;;;;;;7.50;2.17;;;;;;;25.04;43.78;101025.53;6142301;23;20467;-73
2021/08/13 11:34:46;;;;;;;5.05;1.92;;;;;;;25.00;43.28;101030.19;6167124;23;20098;-74
2021/08/13 11:37:34;;;;;;;2.75;1.60;;;;;;;24.68;43.68;101018.78;6167935;23;20021;-74
2021/08/13 11:40:01;;;;;;;4.10;1.92;;;;;;;24.32;44.47;101031.47;6159832;23;20052;-75
2021/08/13 11:42:31;;;;;;;3.30;2.03;;;;;;;24.05;45.04;101025.34;6170395;23;19989;-74
2021/08/13 11:45:02;;;;;;;3.90;2.10;;;;;;;23.95;45.42;101025.78;6172001;23;20009;-76
2021/08/13 11:47:28;;;;;;;1.95;1.52;;;;;;;23.85;45.64;101036.16;6154342;23;20024;-76
2021/08/13 11:49:54;;;;;;;2.97;1.85;;;;;;;23.70;46.36;101020.84;6204795;23;20065;-76
2021/08/13 11:52:26;;;;;;;2.97;2.20;;;;;;;23.56;45.96;101033.44;6176456;23;20020;-73
2021/08/13 11:54:52;;;;;;;4.28;2.00;;;;;;;23.35;46.91;101037.03;6166853;23;20020;-73
2021/08/13 11:57:20;;;;;;;2.35;2.15;;;;;;;23.16;47.66;101041.06;6169465;23;20020;-74
2021/08/13 11:59:48;;;;;;;6.85;2.05;;;;;;;23.18;48.03;101038.75;6194916;23;20028;-74
2021/08/13 12:02:29;;;;;;;2.80;1.85;;;;;;;23.42;47.54;101019.75;6165588;23;20005;-74
2021/08/13 12:05:12;;;;;;;4.88;2.10;;;;;;;23.65;47.42;101025.81;6188856;23;20044;-74
2021/08/13 12:07:38;;;;;;;8.63;2.47;;;;;;;23.74;47.46;101026.53;6193914;23;20015;-73
2021/08/13 12:10:11;;;;;;;5.72;2.20;;;;;;;24.37;47.38;101031.22;6193463;23;20063;-74
2021/08/13 12:12:37;;;;;;;6.10;1.67;;;;;;;24.81;45.41;101026.00;6166907;23;20013;-74
2021/08/13 12:15:03;;;;;;;1.90;1.80;;;;;;;24.90;44.13;101031.47;6193629;23;20084;-75
2021/08/13 12:17:28;;;;;;;3.30;2.15;;;;;;;24.69;44.12;101031.56;6191528;23;20005;-76
2021/08/13 12:19:59;;;;;;;4.25;2.05;;;;;;;24.37;45.07;101028.44;6166725;23;20008;-76
2021/08/13 12:22:56;;;;;;;11.18;3.00;;;;;;;24.32;46.68;101039.84;6164076;23;20005;-75
2021/08/13 12:25:22;;;;;;;4.72;2.17;;;;;;;24.66;46.07;101041.50;6190826;23;20019;-75
2021/08/13 12:27:47;;;;;;;2.70;2.10;;;;;;;25.02;45.13;101027.88;6189328;23;20032;-74
2021/08/13 12:30:17;;;;;;;2.85;1.95;;;;;;;25.21;44.41;101036.47;6194819;23;20020;-76
2021/08/13 12:32:43;;;;;;;5.57;1.60;;;;;;;25.90;45.58;101028.16;6166031;23;20013;-76
2021/08/13 12:35:11;;;;;;;4.95;2.13;;;;;;;27.87;41.98;101036.25;6193620;23;19997;-75
2021/08/13 12:37:38;;;;;;;6.90;1.92;;;;;;;29.86;37.52;101041.25;6189662;23;20016;-76
2021/08/13 12:40:06;;;;;;;3.15;1.88;;;;;;;30.50;33.59;101045.19;6163936;23;20033;-75
2021/08/13 12:42:32;;;;;;;6.57;1.80;;;;;;;30.28;33.38;101028.00;6188408;23;20617;-75
2021/08/13 12:45:00;;;;;;;8.50;2.08;;;;;;;29.84;33.62;101020.28;6162801;23;20008;-75
2021/08/13 12:47:26;;;;;;;7.78;1.77;;;;;;;29.33;35.01;101036.47;6163545;23;20578;-75
2021/08/13 12:49:52;;;;;;;4.53;2.33;;;;;;;28.98;35.72;101029.09;6189867;23;20061;-75
2021/08/13 12:52:24;;;;;;;5.82;2.50;;;;;;;28.88;35.22;101018.47;6166776;23;20012;-75
2021/08/13 12:54:52;;;;;;;3.28;2.20;;;;;;;28.69;35.65;101014.56;6143081;23;20323;-76
2021/08/13 12:57:19;;;;;;;3.22;1.75;;;;;;;28.57;35.95;100995.03;6163572;23;20017;-74
2021/08/13 12:59:53;;;;;;;2.78;1.70;;;;;;;28.44;36.26;101011.28;6139889;23;20060;-74
2021/08/13 13:02:22;;;;;;;4.03;1.60;;;;;;;28.32;36.13;101006.66;6190696;23;20004;-74
2021/08/13 13:04:49;;;;;;;3.83;2.17;;;;;;;28.13;36.80;101015.13;6163915;23;20071;-75
2021/08/13 13:07:31;;;;;;;3.70;1.88;;;;;;;27.80;36.44;101010.81;6163854;23;19997;-74
2021/08/13 13:09:57;;;;;;;4.03;2.28;;;;;;;27.18;38.11;101028.31;6191461;23;20004;-75
2021/08/13 13:12:26;;;;;;;4.60;2.30;;;;;;;26.63;38.88;101026.19;6163912;23;20013;-75
2021/08/13 13:14:56;;;;;;;4.65;2.65;;;;;;;26.00;40.69;101031.66;6164236;23;20008;-75
2021/08/13 13:17:22;;;;;;;5.38;2.17;;;;;;;25.59;41.43;101029.66;6164349;23;20016;-74
2021/08/13 13:20:10;;;;;;;3.30;2.30;;;;;;;25.43;41.64;101042.78;6138755;23;20009;-75
2021/08/13 13:22:35;;;;;;;4.90;2.20;;;;;;;24.92;42.40;101034.72;6164787;23;20005;-75
2021/08/13 13:25:46;;;;;;;2.55;1.85;;;;;;;24.63;43.39;101039.34;6165667;23;20024;-75
2021/08/13 13:28:13;;;;;;;2.70;1.67;;;;;;;24.38;44.58;101038.47;6072802;23;20009;-75
2021/08/13 13:30:45;;;;;;;4.38;1.65;;;;;;;24.37;44.60;101032.06;6115560;23;20013;-74
2021/08/13 13:33:27;;;;;;;2.10;1.90;;;;;;;24.57;44.55;101024.78;6165351;23;19997;-74
2021/08/13 13:36:00;;;;;;;6.75;1.88;;;;;;;24.56;44.81;101019.50;6163813;23;20032;-74
2021/08/13 13:38:31;;;;;;;6.75;2.17;;;;;;;24.73;44.65;101012.94;6163022;23;20453;-74
2021/08/13 13:40:57;;;;;;;5.55;2.08;;;;;;;25.17;44.46;101012.34;6140761;23;20040;-74
2021/08/13 13:43:22;;;;;;;2.42;2.00;;;;;;;25.59;43.34;101012.06;6165127;23;20009;-75
2021/08/13 13:45:51;;;;;;;6.90;2.15;;;;;;;25.88;42.84;100998.88;6115652;23;20017;-75
2021/08/13 13:48:17;;;;;;;9.35;2.13;;;;;;;26.26;41.78;101012.38;6162088;23;20012;-75
2021/08/13 13:50:43;;;;;;;5.82;2.00;;;;;;;26.55;41.26;101007.53;6163360;23;19993;-74
2021/08/13 13:53:08;;;;;;;4.60;2.10;;;;;;;26.68;39.94;101013.06;6140398;23;20048;-74
2021/08/13 13:55:34;;;;;;;5.07;1.92;;;;;;;26.59;40.46;101013.22;6188708;23;20001;-75
2021/08/13 13:58:00;;;;;;;18.50;3.25;;;;;;;26.29;40.64;101006.03;6187258;23;20438;-74
2021/08/13 14:00:40;;;;;;;4.60;2.00;;;;;;;25.94;40.91;101009.47;6190164;23;20013;-74
2021/08/13 14:03:05;;;;;;;6.05;2.17;;;;;;;25.74;42.21;101013.28;6160020;23;20025;-73
2021/08/13 14:05:31;;;;;;;5.03;2.17;;;;;;;25.61;42.75;101004.94;6190744;23;20482;-74
2021/08/13 14:07:58;;;;;;;9.60;2.22;;;;;;;25.62;42.80;101005.75;6161103;23;20332;-74
2021/08/13 14:10:26;;;;;;;9.25;2.60;;;;;;;25.84;42.95;101012.78;6163948;23;20085;-75
2021/08/13 14:12:54;;;;;;;3.08;1.77;;;;;;;25.95;42.37;101013.91;6162312;23;20028;-73
2021/08/13 14:15:20;;;;;;;5.07;2.40;;;;;;;25.98;42.09;101012.38;6140990;23;20042;-73
2021/08/13 14:17:47;;;;;;;2.53;1.60;;;;;;;25.91;42.08;100995.38;6164538;23;20083;-74
2021/08/13 14:20:14;;;;;;;1.90;1.80;;;;;;;26.08;41.58;101013.88;6186019;23;20032;-74
2021/08/13 14:22:40;;;;;;;7.45;2.30;;;;;;;26.03;41.63;101026.16;6188106;23;20005;-74
2021/08/13 14:25:07;;;;;;;2.22;1.75;;;;;;;26.00;42.19;101009.25;6188128;23;20067;-74
2021/08/13 14:27:33;;;;;;;4.25;2.28;;;;;;;26.07;42.06;101009.47;6161393;23;20005;-74
2021/08/13 14:29:58;;;;;;;3.33;1.30;;;;;;;26.19;42.22;101017.78;6163154;23;20005;-73
2021/08/13 14:32:24;;;;;;;3.58;2.33;;;;;;;26.57;40.92;101019.19;6137164;23;20012;-74
2021/08/13 14:34:49;;;;;;;7.32;2.08;;;;;;;27.54;39.32;101017.94;6189338;23;20421;-75
2021/08/13 14:37:15;;;;;;;3.47;1.98;;;;;;;29.17;36.17;101027.38;6161446;23;20020;-74
2021/08/13 14:39:40;;;;;;;6.25;2.25;;;;;;;29.59;34.06;101017.94;6191312;23;20238;-75
2021/08/13 14:42:09;;;;;;;4.90;2.05;;;;;;;29.87;33.81;101019.50;6187184;23;20015;-74
2021/08/13 14:44:35;;;;;;;2.13;1.98;;;;;;;31.06;33.23;101015.84;6188442;23;20015;-74
2021/08/13 14:47:01;;;;;;;3.33;1.83;;;;;;;32.15;31.22;101029.31;6191116;23;20021;-73
2021/08/13 14:49:27;;;;;;;4.22;1.85;;;;;;;31.85;30.75;101010.63;6185234;23;20498;-73
2021/08/13 14:51:53;;;;;;;4.80;2.05;;;;;;;30.84;31.28;101017.69;6166956;23;20063;-74
2021/08/13 14:54:19;;;;;;;3.92;2.03;;;;;;;30.62;31.98;101013.84;6199790;23;20017;-75
2021/08/13 14:56:44;;;;;;;6.03;2.38;;;;;;;30.33;32.11;101024.84;6173693;23;20009;-74
2021/08/13 14:59:11;;;;;;;5.28;2.40;;;;;;;30.07;32.73;101014.50;6172528;23;20021;-74
2021/08/13 15:01:37;;;;;;;5.93;2.15;;;;;;;29.78;33.91;101006.47;6199967;23;20035;-73
2021/08/13 15:04:03;;;;;;;2.53;2.13;;;;;;;30.51;34.78;100996.03;6201063;23;20009;-74
2021/08/13 15:06:29;;;;;;;3.72;2.20;;;;;;;32.24;32.39;101009.13;6174692;23;20005;-73
2021/08/13 15:08:56;;;;;;;6.07;2.35;;;;;;;33.57;28.89;101009.03;6175674;23;20019;-74
2021/08/13 15:11:22;;;;;;;5.72;2.83;;;;;;;34.25;26.81;101019.22;6145394;23;20009;-73
2021/08/13 15:13:48;;;;;;;2.47;2.03;;;;;;;34.40;26.19;101013.47;6169626;23;20016;-75
2021/08/13 15:16:13;;;;;;;7.70;2.65;;;;;;;34.18;26.03;101013.59;6167566;23;20083;-75
2021/08/13 15:18:38;;;;;;;6.82;2.20;;;;;;;33.73;27.73;101004.91;6193349;23;20012;-74
2021/08/13 15:21:05;;;;;;;4.28;2.15;;;;;;;33.95;26.18;100999.94;6167819;23;20116;-75
2021/08/13 15:23:30;;;;;;;6.55;2.90;;;;;;;34.19;27.12;101015.22;6193031;23;20313;-74
2021/08/13 15:25:56;;;;;;;6.78;2.05;;;;;;;34.29;25.71;101012.75;6165890;23;20013;-75
2021/08/13 15:28:24;;;;;;;3.05;2.45;;;;;;;34.55;26.25;101003.63;6190837;23;20713;-75
2021/08/13 15:30:50;;;;;;;3.20;1.88;;;;;;;34.81;26.06;101009.13;6166260;23;20032;-75
2021/08/13 15:33:15;;;;;;;3.95;2.38;;;;;;;34.57;25.51;101001.19;6143443;23;19996;-75
2021/08/13 15:35:42;;;;;;;4.05;2.05;;;;;;;33.17;26.99;100996.97;6141675;23;20069;-75
2021/08/13 15:38:11;;;;;;;5.65;2.65;;;;;;;31.94;28.89;100995.31;6165216;23;20024;-75
2021/08/13 15:40:37;;;;;;;4.32;2.58;;;;;;;30.99;30.67;100976.22;6166938;23;20500;-78
2021/08/13 15:43:03;;;;;;;5.05;2.03;;;;;;;31.04;31.65;100978.69;6164643;23;20005;-75
2021/08/13 15:45:29;;;;;;;4.55;2.38;;;;;;;31.60;29.51;100981.44;6163624;23;20013;-75
2021/08/13 15:47:54;;;;;;;3.45;2.17;;;;;;;32.26;30.39;100989.72;6187722;23;20043;-75
2021/08/13 15:50:20;;;;;;;3.75;2.15;;;;;;;33.43;29.20;100982.78;6165286;23;20009;-76
2021/08/13 15:52:50;;;;;;;4.72;2.53;;;;;;;34.39;27.24;100989.16;6191943;23;20616;-74
2021/08/13 15:55:21;;;;;;;2.72;1.80;;;;;;;35.28;26.69;100986.69;6140057;23;20008;-75
2021/08/13 15:57:47;;;;;;;11.25;2.50;;;;;;;35.51;25.19;100985.25;6186837;23;20029;-73
2021/08/13 16:00:15;;;;;;;5.18;2.53;;;;;;;34.58;25.52;100977.25;6163672;23;20016;-75
2021/08/13 16:02:42;;;;;;;7.10;2.70;;;;;;;33.58;26.84;100987.97;6138665;23;20013;-74
2021/08/13 16:05:09;;;;;;;5.40;2.80;;;;;;;32.70;28.09;100973.59;6116904;23;20415;-75
2021/08/13 16:07:35;;;;;;;9.52;2.35;;;;;;;31.76;28.51;100973.44;6164653;23;20104;-75
2021/08/13 16:10:00;;;;;;;2.08;1.40;;;;;;;30.97;29.68;100973.81;6164431;23;20015;-75
2021/08/13 16:12:26;;;;;;;7.03;2.50;;;;;;;30.14;31.37;100965.81;6190689;23;20015;-74
2021/08/13 16:14:51;;;;;;;2.85;2.30;;;;;;;29.54;33.21;100968.38;6189963;23;20039;-75
2021/08/13 16:17:18;;;;;;;2.72;2.10;;;;;;;29.39;33.82;100966.56;6140156;23;20016;-75
2021/08/13 16:19:45;;;;;;;6.35;2.90;;;;;;;29.97;34.32;100979.34;6137542;23;20088;-75
2021/08/13 16:22:11;;;;;;;5.50;2.33;;;;;;;30.18;33.01;100975.13;6188902;23;20001;-74
2021/08/13 16:24:37;;;;;;;4.28;2.60;;;;;;;29.93;33.23;100979.31;6187397;23;20027;-75
2021/08/13 16:27:03;;;;;;;6.72;2.38;;;;;;;29.33;33.30;100980.16;6186344;23;20016;-74
2021/08/13 16:29:29;;;;;;;5.43;2.47;;;;;;;28.63;34.78;100987.13;6191245;23;20005;-74
2021/08/13 16:31:58;;;;;;;6.00;2.47;;;;;;;28.21;35.90;100985.94;6190416;23;20373;-75
2021/08/13 16:34:24;;;;;;;9.63;2.70;;;;;;;27.79;36.58;100978.31;6164012;23;20001;-74
2021/08/13 16:36:50;;;;;;;5.15;2.63;;;;;;;27.42;36.88;100975.94;6161997;23;20303;-74
2021/08/13 16:39:15;;;;;;;2.55;1.98;;;;;;;27.20;37.90;100964.19;6191057;23;20585;-75
2021/08/13 16:41:41;;;;;;;4.28;2.65;;;;;;;26.94;38.37;100957.22;6188464;23;20061;-74
2021/08/13 16:44:06;;;;;;;3.03;2.20;;;;;;;26.55;38.68;100945.84;6164043;23;20036;-74
2021/08/13 16:46:32;;;;;;;3.03;2.78;;;;;;;26.18;39.48;100948.91;6187777;23;20367;-76
2021/08/13 16:48:57;;;;;;;6.13;2.50;;;;;;;25.87;40.29;100949.63;6160987;23;20084;-74